Time;durP1;ratioP1;P1;durP2;ratioP2;P2;SDS_P1;SDS_P2;PMS_P1;PMS_P2;Temp;Humidity;BMP_temperature;BMP_pressure;BME280_temperature;BME280_humidity;BME280_pressure;Samples;Min_cycle;Max_cycle;Signal;HPM_P1;HPM_P2
2023/08/11 00:00:36;;;;;;;;;;;14.70;99.90;;;;;;5039853;28;19929;-76
2023/08/11 00:03:05;;;;;;;;;;;14.70;99.90;;;;;;5039732;28;19925;-75
2023/08/11 00:05:33;;;;;;;;;;;14.70;99.90;;;;;;5039723;28;19925;-76
2023/08/11 00:07:58;;;;;;;;;;;14.70;99.90;;;;;;5073772;28;19933;-75
2023/08/11 00:10:25;;;;;;;;;;;14.60;99.90;;;;;;5038976;28;19935;-76
2023/08/11 00:12:51;;;;;;;;;;;14.60;99.90;;;;;;5054620;28;19936;-76
2023/08/11 00:15:18;;;;;;;;;;;14.60;99.90;;;;;;5039363;28;19925;-76
2023/08/11 00:17:44;;;;;;;;;;;14.60;99.90;;;;;;5039861;28;20272;-76
2023/08/11 00:20:09;;;;;;;;;;;14.60;99.90;;;;;;5039695;28;20000;-76
2023/08/11 00:22:35;;;;;;;;;;;14.60;99.90;;;;;;5038871;28;19925;-76
2023/08/11 00:25:01;;;;;;;;;;;14.60;99.90;;;;;;5041150;28;19929;-76
2023/08/11 00:27:27;;;;;;;;;;;14.60;99.90;;;;;;5038780;28;19925;-76
2023/08/11 00:29:54;;;;;;;;;;;14.60;99.90;;;;;;5055164;28;19936;-76
2023/08/11 00:32:20;;;;;;;;;;;14.60;99.90;;;;;;5039951;28;19988;-76
2023/08/11 00:34:47;;;;;;;;;;;14.60;99.90;;;;;;5042204;28;19925;-76
2023/08/11 00:37:13;;;;;;;;;;;14.50;99.90;;;;;;5039375;28;19925;-76
2023/08/11 00:39:38;;;;;;;;;;;14.50;99.90;;;;;;5039242;28;19929;-76
2023/08/11 00:42:05;;;;;;;;;;;14.50;99.90;;;;;;5072788;28;20400;-76
2023/08/11 00:44:31;;;;;;;;;;;14.50;99.90;;;;;;5038867;28;19992;-76
2023/08/11 00:46:57;;;;;;;;;;;14.50;99.90;;;;;;5039204;28;19933;-76
2023/08/11 00:49:23;;;;;;;;;;;14.50;99.90;;;;;;5022505;28;19925;-76
2023/08/11 00:51:48;;;;;;;;;;;14.50;99.90;;;;;;5038730;28;19933;-76
2023/08/11 00:54:15;;;;;;;;;;;14.50;99.90;;;;;;5024934;28;19936;-76
2023/08/11 00:56:44;;;;;;;;;;;14.50;99.90;;;;;;5038402;28;19941;-77
2023/08/11 00:59:14;;;;;;;;;;;14.50;99.90;;;;;;5039071;28;20016;-76
2023/08/11 01:01:40;;;;;;;;;;;14.50;99.90;;;;;;5037891;28;19932;-76
2023/08/11 01:04:07;;;;;;;;;;;14.50;99.90;;;;;;5038793;28;19929;-76
2023/08/11 01:06:35;;;;;;;;;;;14.50;99.90;;;;;;5038348;28;19932;-76
2023/08/11 01:09:10;;;;;;;;;;;14.50;99.90;;;;;;5038723;28;19964;-76
2023/08/11 01:11:40;;;;;;;;;;;14.50;99.90;;;;;;5038621;28;19932;-76
2023/08/11 01:14:16;;;;;;;;;;;14.50;99.90;;;;;;5038199;28;19929;-76
2023/08/11 01:16:43;;;;;;;;;;;14.50;99.90;;;;;;5010079;28;20406;-76
2023/08/11 01:19:12;;;;;;;;;;;14.50;99.90;;;;;;5037666;28;19944;-76
2023/08/11 01:21:40;;;;;;;;;;;14.50;99.90;;;;;;5038607;28;19964;-76
2023/08/11 01:24:05;;;;;;;;;;;14.50;99.90;;;;;;5037963;28;19929;-76
2023/08/11 01:26:33;;;;;;;;;;;14.50;99.90;;;;;;5038071;28;20012;-76
2023/08/11 01:28:59;;;;;;;;;;;14.50;99.90;;;;;;5038594;28;19929;-76
2023/08/11 01:31:25;;;;;;;;;;;14.40;99.90;;;;;;5037658;28;19925;-76
2023/08/11 01:33:50;;;;;;;;;;;14.50;99.90;;;;;;5038652;28;20020;-76
2023/08/11 01:36:16;;;;;;;;;;;14.50;99.90;;;;;;5037646;28;20321;-76
2023/08/11 01:38:42;;;;;;;;;;;14.50;99.90;;;;;;5038258;28;19925;-76
2023/08/11 01:41:07;;;;;;;;;;;14.50;99.90;;;;;;5039115;28;20008;-76
2023/08/11 01:43:33;;;;;;;;;;;14.50;99.90;;;;;;5037985;28;19929;-76
2023/08/11 01:45:59;;;;;;;;;;;14.50;99.90;;;;;;5038406;28;19929;-76
2023/08/11 01:48:26;;;;;;;;;;;14.50;99.90;;;;;;5037371;28;20386;-76
2023/08/11 01:50:52;;;;;;;;;;;14.60;99.90;;;;;;5038283;28;20004;-76
2023/08/11 01:53:17;;;;;;;;;;;14.60;99.90;;;;;;5037118;28;20075;-76
2023/08/11 01:55:44;;;;;;;;;;;14.60;99.90;;;;;;5054573;28;20359;-76
2023/08/11 01:58:10;;;;;;;;;;;14.60;99.90;;;;;;5037302;28;19940;-76
2023/08/11 02:00:36;;;;;;;;;;;14.60;99.90;;;;;;5037469;28;19925;-76
2023/08/11 02:03:02;;;;;;;;;;;14.60;99.90;;;;;;5037727;28;19929;-75
2023/08/11 02:05:29;;;;;;;;;;;14.50;99.90;;;;;;5037294;28;20412;-76
2023/08/11 02:07:55;;;;;;;;;;;14.50;99.90;;;;;;5038055;28;19932;-76
2023/08/11 02:10:20;;;;;;;;;;;14.50;99.90;;;;;;5036848;28;19960;-76
2023/08/11 02:12:47;;;;;;;;;;;14.50;99.90;;;;;;5053604;28;19925;-76
2023/08/11 02:15:13;;;;;;;;;;;14.50;99.90;;;;;;5038546;28;19929;-76
2023/08/11 02:17:39;;;;;;;;;;;14.60;99.90;;;;;;5037428;28;19948;-76
2023/08/11 02:20:26;;;;;;;;;;;14.60;99.90;;;;;;5054278;28;19968;-76
2023/08/11 02:22:51;;;;;;;;;;;14.60;99.90;;;;;;5035956;28;19986;-76
2023/08/11 02:25:16;;;;;;;;;;;14.60;99.90;;;;;;5038080;28;19992;-76
2023/08/11 02:27:43;;;;;;;;;;;14.50;99.90;;;;;;5036703;28;19948;-76
2023/08/11 02:30:11;;;;;;;;;;;14.60;99.90;;;;;;5037221;28;20008;-76
2023/08/11 02:32:39;;;;;;;;;;;14.50;99.90;;;;;;5020525;28;19936;-76
2023/08/11 02:35:05;;;;;;;;;;;14.50;99.90;;;;;;5037156;28;19928;-76
2023/08/11 02:37:31;;;;;;;;;;;14.50;99.90;;;;;;5054016;28;19929;-76
2023/08/11 02:39:57;;;;;;;;;;;14.50;99.90;;;;;;5036554;28;19936;-76
2023/08/11 02:42:24;;;;;;;;;;;14.60;99.90;;;;;;5037500;28;19925;-76
2023/08/11 02:44:49;;;;;;;;;;;14.60;99.90;;;;;;5036604;28;19932;-77
2023/08/11 02:47:15;;;;;;;;;;;14.50;99.90;;;;;;5037633;28;19929;-76
2023/08/11 02:49:41;;;;;;;;;;;14.60;99.90;;;;;;5037394;28;19932;-76
2023/08/11 02:52:06;;;;;;;;;;;14.60;99.90;;;;;;5052843;28;19929;-76
2023/08/11 02:54:32;;;;;;;;;;;14.60;99.90;;;;;;5037588;28;19996;-76
2023/08/11 02:56:57;;;;;;;;;;;14.60;99.90;;;;;;5036820;28;20028;-76
2023/08/11 02:59:23;;;;;;;;;;;14.60;99.90;;;;;;5037886;28;19929;-76
2023/08/11 03:01:49;;;;;;;;;;;14.60;99.90;;;;;;5036398;28;19925;-76
2023/08/11 03:04:16;;;;;;;;;;;14.60;99.90;;;;;;5037226;28;19964;-76
2023/08/11 03:06:42;;;;;;;;;;;14.50;99.90;;;;;;5036735;28;19931;-76
2023/08/11 03:09:08;;;;;;;;;;;14.50;99.90;;;;;;5036655;28;19935;-76
2023/08/11 03:11:34;;;;;;;;;;;14.50;99.90;;;;;;5037182;28;20354;-76
2023/08/11 03:14:00;;;;;;;;;;;14.50;99.90;;;;;;5036854;28;19925;-76
2023/08/11 03:16:26;;;;;;;;;;;14.50;99.90;;;;;;5037830;28;19971;-76
2023/08/11 03:18:52;;;;;;;;;;;14.50;99.90;;;;;;5042205;28;19972;-76
2023/08/11 03:21:18;;;;;;;;;;;14.50;99.90;;;;;;5037522;28;19932;-76
2023/08/11 03:23:43;;;;;;;;;;;14.50;99.90;;;;;;5053425;28;19925;-76
2023/08/11 03:26:09;;;;;;;;;;;14.40;99.90;;;;;;5041946;28;19929;-76
2023/08/11 03:28:35;;;;;;;;;;;14.40;99.90;;;;;;5040779;28;20020;-76
2023/08/11 03:31:00;;;;;;;;;;;14.40;99.90;;;;;;5039948;28;19932;-76
2023/08/11 03:33:26;;;;;;;;;;;14.40;99.90;;;;;;5041111;28;19925;-76
2023/08/11 03:35:52;;;;;;;;;;;14.40;99.90;;;;;;5039737;28;19932;-77
2023/08/11 03:38:18;;;;;;;;;;;14.40;99.90;;;;;;5024173;28;20399;-76
2023/08/11 03:40:43;;;;;;;;;;;14.50;99.90;;;;;;5039682;28;20040;-76
2023/08/11 03:43:09;;;;;;;;;;;14.40;99.90;;;;;;5040550;28;19925;-76
2023/08/11 03:45:35;;;;;;;;;;;14.40;99.90;;;;;;5040192;28;20285;-76
2023/08/11 03:48:00;;;;;;;;;;;14.40;99.90;;;;;;5039989;28;19995;-76
2023/08/11 03:50:26;;;;;;;;;;;14.40;99.90;;;;;;5024130;28;19925;-76
2023/08/11 03:52:51;;;;;;;;;;;14.40;99.90;;;;;;5039560;28;19929;-76
2023/08/11 03:55:17;;;;;;;;;;;14.40;99.90;;;;;;5040585;28;19929;-76
2023/08/11 03:57:43;;;;;;;;;;;14.40;99.90;;;;;;5039433;28;19925;-76
2023/08/11 04:00:11;;;;;;;;;;;14.30;99.90;;;;;;5040608;28;19933;-76
2023/08/11 04:02:36;;;;;;;;;;;14.30;99.90;;;;;;5041143;28;19929;-76
2023/08/11 04:05:02;;;;;;;;;;;14.30;99.90;;;;;;5056071;28;19932;-76
2023/08/11 04:07:28;;;;;;;;;;;14.30;99.90;;;;;;5039983;28;20491;-76
2023/08/11 04:09:54;;;;;;;;;;;14.30;99.90;;;;;;5039210;28;19948;-76
2023/08/11 04:12:19;;;;;;;;;;;14.30;99.90;;;;;;5039908;28;19996;-76
2023/08/11 04:14:45;;;;;;;;;;;14.30;99.90;;;;;;5022474;28;20043;-76
2023/08/11 04:17:13;;;;;;;;;;;14.30;99.90;;;;;;5040094;28;19971;-76
2023/08/11 04:19:40;;;;;;;;;;;14.30;99.90;;;;;;5039353;28;19968;-76
2023/08/11 04:22:06;;;;;;;;;;;14.40;99.90;;;;;;5039027;28;20059;-76
2023/08/11 04:24:33;;;;;;;;;;;14.40;99.90;;;;;;5039787;28;19929;-76
2023/08/11 04:26:59;;;;;;;;;;;14.40;99.90;;;;;;5022609;28;19932;-76
2023/08/11 04:29:26;;;;;;;;;;;14.40;99.90;;;;;;5073252;28;20019;-76
2023/08/11 04:31:51;;;;;;;;;;;14.40;99.90;;;;;;5038925;28;19925;-76
2023/08/11 04:34:17;;;;;;;;;;;14.40;99.90;;;;;;5039601;28;19929;-77
2023/08/11 04:36:42;;;;;;;;;;;14.40;99.90;;;;;;5038178;28;19926;-76
2023/08/11 04:39:08;;;;;;;;;;;14.50;99.90;;;;;;5039275;28;19933;-76
2023/08/11 04:41:33;;;;;;;;;;;14.50;99.90;;;;;;5039552;28;19940;-76
2023/08/11 04:43:59;;;;;;;;;;;14.50;99.90;;;;;;5038973;28;19968;-76
2023/08/11 04:46:25;;;;;;;;;;;14.60;99.90;;;;;;5039717;28;19932;-76
2023/08/11 04:48:51;;;;;;;;;;;14.60;99.90;;;;;;5054751;28;19932;-76
2023/08/11 04:51:16;;;;;;;;;;;14.60;99.90;;;;;;5039421;28;19925;-76
2023/08/11 04:53:42;;;;;;;;;;;14.70;99.90;;;;;;5037907;28;19925;-76
2023/08/11 04:56:08;;;;;;;;;;;14.70;99.90;;;;;;5039160;28;19929;-76
2023/08/11 04:58:34;;;;;;;;;;;14.70;99.90;;;;;;5038777;28;19972;-76
2023/08/11 05:01:03;;;;;;;;;;;14.80;99.90;;;;;;5038954;28;19936;-76
2023/08/11 05:03:29;;;;;;;;;;;14.90;99.90;;;;;;5055323;28;19925;-76
2023/08/11 05:05:55;;;;;;;;;;;15.00;99.90;;;;;;5021827;28;20107;-76
2023/08/11 05:08:21;;;;;;;;;;;15.20;99.90;;;;;;5039195;28;19960;-76
2023/08/11 05:10:46;;;;;;;;;;;15.40;99.90;;;;;;5038076;28;19925;-76
2023/08/11 05:13:12;;;;;;;;;;;15.70;99.90;;;;;;5038981;28;20284;-76
2023/08/11 05:15:38;;;;;;;;;;;16.10;99.90;;;;;;5038598;28;19933;-76
2023/08/11 05:18:04;;;;;;;;;;;16.50;99.90;;;;;;5021975;28;19925;-76
2023/08/11 05:20:30;;;;;;;;;;;16.90;99.90;;;;;;5055624;28;19936;-76
2023/08/11 05:22:56;;;;;;;;;;;17.20;99.90;;;;;;5037349;28;20395;-76
2023/08/11 05:25:22;;;;;;;;;;;17.60;99.90;;;;;;5038746;28;19925;-76
2023/08/11 05:27:47;;;;;;;;;;;17.90;99.90;;;;;;5021654;28;19929;-76
2023/08/11 05:30:13;;;;;;;;;;;18.10;99.90;;;;;;5038617;28;19925;-76
2023/08/11 05:32:39;;;;;;;;;;;18.30;99.90;;;;;;5038234;28;19933;-76
2023/08/11 05:35:05;;;;;;;;;;;18.50;99.90;;;;;;5038192;28;19925;-76
2023/08/11 05:37:31;;;;;;;;;;;18.80;99.90;;;;;;5038328;28;19925;-76
2023/08/11 05:39:57;;;;;;;;;;;19.00;99.90;;;;;;5037359;28;20714;-76
2023/08/11 05:42:23;;;;;;;;;;;19.10;99.90;;;;;;5038311;28;19931;-76
2023/08/11 05:44:49;;;;;;;;;;;19.30;99.90;;;;;;5037749;28;19933;-76
2023/08/11 05:47:14;;;;;;;;;;;19.50;99.90;;;;;;5038158;28;19929;-76
2023/08/11 05:49:40;;;;;;;;;;;19.70;99.90;;;;;;5037526;28;19948;-76
2023/08/11 05:52:06;;;;;;;;;;;19.80;99.90;;;;;;5053747;28;20013;-76
2023/08/11 05:54:31;;;;;;;;;;;20.00;99.90;;;;;;5054953;28;19932;-76
2023/08/11 05:56:57;;;;;;;;;;;20.00;99.90;;;;;;5038770;28;19925;-76
2023/08/11 05:59:23;;;;;;;;;;;19.90;99.90;;;;;;5038606;28;19932;-76
2023/08/11 06:01:49;;;;;;;;;;;19.70;99.90;;;;;;5037005;28;19928;-77
2023/08/11 06:04:15;;;;;;;;;;;19.40;99.90;;;;;;5037463;28;19937;-76
2023/08/11 06:06:41;;;;;;;;;;;19.20;99.90;;;;;;5037525;28;19925;-76
2023/08/11 06:09:07;;;;;;;;;;;18.90;99.90;;;;;;5037674;28;19925;-76
2023/08/11 06:11:33;;;;;;;;;;;18.70;99.90;;;;;;5037707;28;19957;-76
2023/08/11 06:13:59;;;;;;;;;;;18.70;99.90;;;;;;5020937;28;19925;-77
2023/08/11 06:16:24;;;;;;;;;;;19.00;99.90;;;;;;5033769;28;19957;-76
2023/08/11 06:18:50;;;;;;;;;;;19.40;99.90;;;;;;5037021;28;19968;-77
2023/08/11 06:21:17;;;;;;;;;;;19.70;99.90;;;;;;5037566;28;19940;-77
2023/08/11 06:23:43;;;;;;;;;;;20.00;99.90;;;;;;5036654;28;19925;-77
2023/08/11 06:26:08;;;;;;;;;;;20.30;99.90;;;;;;5037623;28;19929;-77
2023/08/11 06:28:34;;;;;;;;;;;20.40;99.90;;;;;;5037505;28;20379;-76
2023/08/11 06:31:01;;;;;;;;;;;20.50;99.90;;;;;;5036926;28;20400;-76
2023/08/11 06:33:27;;;;;;;;;;;20.60;99.90;;;;;;5037990;28;19929;-76
2023/08/11 06:35:53;;;;;;;;;;;20.90;99.90;;;;;;5036853;28;19956;-77
2023/08/11 06:38:18;;;;;;;;;;;21.20;99.90;;;;;;5037861;28;19974;-76
2023/08/11 06:40:44;;;;;;;;;;;21.50;99.90;;;;;;5037134;28;20007;-77
2023/08/11 06:43:10;;;;;;;;;;;21.80;99.90;;;;;;5043048;28;19979;-77
2023/08/11 06:45:35;;;;;;;;;;;22.10;99.90;;;;;;5037900;28;19929;-77
2023/08/11 06:48:01;;;;;;;;;;;22.40;99.90;;;;;;5036918;28;20518;-77
2023/08/11 06:50:26;;;;;;;;;;;22.70;99.90;;;;;;5023392;28;19951;-77
2023/08/11 06:52:52;;;;;;;;;;;22.90;99.90;;;;;;5036523;28;19936;-77
2023/08/11 06:55:18;;;;;;;;;;;23.10;99.90;;;;;;5054513;28;19992;-77
2023/08/11 06:57:43;;;;;;;;;;;23.20;99.90;;;;;;5036745;28;19925;-77
2023/08/11 07:00:09;;;;;;;;;;;23.30;99.90;;;;;;5040610;28;19973;-77
2023/08/11 07:02:35;;;;;;;;;;;23.40;99.90;;;;;;5041285;28;19925;-77
2023/08/11 07:05:04;;;;;;;;;;;23.20;99.90;;;;;;5040586;28;19932;-77
2023/08/11 07:07:29;;;;;;;;;;;22.80;99.90;;;;;;5041436;28;20009;-77
2023/08/11 07:09:55;;;;;;;;;;;22.40;99.90;;;;;;5057395;28;19975;-77
2023/08/11 07:12:21;;;;;;;;;;;22.00;99.90;;;;;;5041118;28;19996;-76
2023/08/11 07:14:46;;;;;;;;;;;21.80;99.90;;;;;;5040381;28;19925;-76
2023/08/11 07:17:12;;;;;;;;;;;21.60;99.90;;;;;;5057453;28;19932;-77
2023/08/11 07:19:37;;;;;;;;;;;21.40;99.90;;;;;;5041084;28;19925;-77
2023/08/11 07:22:03;;;;;;;;;;;21.30;99.90;;;;;;5040416;28;19996;-77
2023/08/11 07:24:29;;;;;;;;;;;21.20;99.90;;;;;;5041219;28;19966;-78
2023/08/11 07:26:55;;;;;;;;;;;21.30;99.90;;;;;;5039958;28;20392;-78
2023/08/11 07:29:20;;;;;;;;;;;21.70;99.90;;;;;;5057542;28;19948;-77
2023/08/11 07:31:46;;;;;;;;;;;22.30;99.90;;;;;;5023729;28;20019;-78
2023/08/11 07:34:11;;;;;;;;;;;22.90;99.90;;;;;;5056819;28;20407;-77
2023/08/11 07:36:37;;;;;;;;;;;23.40;99.90;;;;;;5042545;28;19964;-77
2023/08/11 07:39:03;;;;;;;;;;;23.90;99.90;;;;;;5040514;28;20516;-78
2023/08/11 07:41:29;;;;;;;;;;;24.30;99.90;;;;;;5040759;28;20415;-77
2023/08/11 07:43:54;;;;;;;;;;;24.70;99.90;;;;;;5040176;28;20406;-78
2023/08/11 07:46:20;;;;;;;;;;;25.00;99.90;;;;;;5040768;28;19932;-77
2023/08/11 07:48:46;;;;;;;;;;;25.30;99.90;;;;;;5039434;28;20376;-77
2023/08/11 07:51:14;;;;;;;;;;;25.60;99.90;;;;;;5040621;28;19936;-78
2023/08/11 07:53:39;;;;;;;;;;;25.80;99.90;;;;;;5039368;28;19947;-77
2023/08/11 07:56:05;;;;;;;;;;;25.90;99.90;;;;;;5023763;28;19929;-77
2023/08/11 07:58:31;;;;;;;;;;;26.10;99.90;;;;;;5040372;28;19987;-78
2023/08/11 08:00:56;;;;;;;;;;;26.20;99.90;;;;;;5039598;28;20439;-78
2023/08/11 08:03:22;;;;;;;;;;;26.30;99.90;;;;;;5040444;28;20292;-76
2023/08/11 08:05:47;;;;;;;;;;;26.50;99.90;;;;;;5039378;28;19932;-77
2023/08/11 08:08:13;;;;;;;;;;;26.60;99.90;;;;;;5040300;28;19926;-77
2023/08/11 08:10:38;;;;;;;;;;;26.70;99.90;;;;;;5037994;28;19929;-77
2023/08/11 08:13:05;;;;;;;;;;;26.90;99.90;;;;;;5040096;28;20460;-77
2023/08/11 08:15:30;;;;;;;;;;;26.90;99.90;;;;;;5039811;28;19986;-77
2023/08/11 08:17:56;;;;;;;;;;;27.00;99.90;;;;;;5039509;28;19968;-77
2023/08/11 08:20:21;;;;;;;;;;;27.10;99.90;;;;;;5040117;28;19956;-77
2023/08/11 08:22:47;;;;;;;;;;;27.20;99.90;;;;;;5038595;28;19935;-77
2023/08/11 08:25:14;;;;;;;;;;;27.30;99.90;;;;;;5040090;28;19936;-77
2023/08/11 08:27:40;;;;;;;;;;;27.40;99.90;;;;;;5038792;28;19929;-77
2023/08/11 08:30:07;;;;;;;;;;;27.40;99.90;;;;;;5056266;28;19983;-78
2023/08/11 08:32:33;;;;;;;;;;;27.30;99.90;;;;;;5039205;28;19995;-77
2023/08/11 08:34:59;;;;;;;;;;;27.30;99.90;;;;;;5038969;28;20455;-77
2023/08/11 08:37:24;;;;;;;;;;;27.40;99.90;;;;;;5063819;28;19929;-77
2023/08/11 08:39:51;;;;;;;;;;;27.40;99.90;;;;;;5038488;28;19932;-77
2023/08/11 08:42:18;;;;;;;;;;;27.50;99.90;;;;;;5039784;28;20327;-77
2023/08/11 08:44:44;;;;;;;;;;;27.60;99.90;;;;;;5038569;28;20339;-77
2023/08/11 08:47:12;;;;;;;;;;;27.70;99.90;;;;;;5039154;28;19936;-77
2023/08/11 08:49:38;;;;;;;;;;;27.80;99.90;;;;;;5038652;28;19931;-77
2023/08/11 08:52:07;;;;;;;;;;;27.90;99.90;;;;;;5038824;28;19925;-77
2023/08/11 08:54:33;;;;;;;;;;;27.80;99.90;;;;;;5038847;28;19925;-78
2023/08/11 08:56:59;;;;;;;;;;;27.70;99.90;;;;;;5038519;28;19933;-77
2023/08/11 08:59:25;;;;;;;;;;;27.70;99.90;;;;;;5039412;28;19929;-78
2023/08/11 09:01:50;;;;;;;;;;;27.70;99.90;;;;;;5054960;28;19967;-78
2023/08/11 09:04:18;;;;;;;;;;;27.80;99.90;;;;;;5038789;28;19925;-77
2023/08/11 09:06:44;;;;;;;;;;;27.90;99.90;;;;;;5038930;28;20044;-77
2023/08/11 09:09:10;;;;;;;;;;;28.00;99.90;;;;;;5038310;28;20424;-78
2023/08/11 09:11:38;;;;;;;;;;;28.10;99.90;;;;;;5039024;28;20402;-77
2023/08/11 09:14:04;;;;;;;;;;;28.10;99.90;;;;;;5037930;28;19925;-77
2023/08/11 09:16:31;;;;;;;;;;;28.20;99.90;;;;;;5039190;28;19956;-78
2023/08/11 09:18:57;;;;;;;;;;;28.40;99.90;;;;;;5038057;28;19929;-77
2023/08/11 09:21:23;;;;;;;;;;;28.50;99.90;;;;;;5038746;28;20332;-78
2023/08/11 09:23:51;;;;;;;;;;;28.60;99.90;;;;;;5037691;28;19929;-78
2023/08/11 09:26:19;;;;;;;;;;;28.80;99.90;;;;;;5038394;28;19947;-78
2023/08/11 09:28:45;;;;;;;;;;;28.90;99.90;;;;;;5038722;28;19980;-78
2023/08/11 09:31:11;;;;;;;;;;;29.00;99.90;;;;;;5037523;28;19979;-78
2023/08/11 09:33:37;;;;;;;;;;;29.00;99.90;;;;;;5038661;28;19967;-78
2023/08/11 09:36:03;;;;;;;;;;;29.10;99.90;;;;;;5037339;28;19925;-78
2023/08/11 09:38:29;;;;;;;;;;;29.00;99.90;;;;;;5038340;28;20020;-78
2023/08/11 09:40:58;;;;;;;;;;;29.00;99.90;;;;;;5037761;28;19929;-77
2023/08/11 09:43:24;;;;;;;;;;;29.10;99.90;;;;;;5037731;28;19987;-78
2023/08/11 09:45:51;;;;;;;;;;;29.20;99.90;;;;;;5054928;28;19925;-77
2023/08/11 09:48:17;;;;;;;;;;;29.40;99.90;;;;;;5037620;28;19979;-78
2023/08/11 09:50:44;;;;;;;;;;;29.40;99.90;;;;;;5038343;28;19928;-77
2023/08/11 09:53:09;;;;;;;;;;;29.50;98.90;;;;;;5036824;28;20495;-77
2023/08/11 09:55:36;;;;;;;;;;;29.50;99.90;;;;;;5038307;28;19932;-77
2023/08/11 09:58:04;;;;;;;;;;;29.50;97.90;;;;;;5037660;28;20459;-77
2023/08/11 10:00:30;;;;;;;;;;;29.50;97.80;;;;;;5037436;28;19931;-78
2023/08/11 10:02:59;;;;;;;;;;;29.50;99.00;;;;;;5005279;28;19925;-77
2023/08/11 10:05:26;;;;;;;;;;;29.40;99.20;;;;;;5037027;28;19925;-78
2023/08/11 10:07:53;;;;;;;;;;;29.50;98.70;;;;;;5038297;28;19932;-77
2023/08/11 10:10:19;;;;;;;;;;;29.60;99.60;;;;;;5037603;28;20344;-78
2023/08/11 10:12:47;;;;;;;;;;;29.60;97.10;;;;;;5037594;28;19937;-78
2023/08/11 10:15:16;;;;;;;;;;;29.70;99.90;;;;;;5037542;28;19955;-78
2023/08/11 10:17:42;;;;;;;;;;;29.80;99.40;;;;;;5037355;28;19929;-77
2023/08/11 10:20:08;;;;;;;;;;;30.00;98.80;;;;;;5037921;28;19929;-77
2023/08/11 10:22:33;;;;;;;;;;;30.00;97.80;;;;;;5020441;28;19986;-78
2023/08/11 10:25:01;;;;;;;;;;;30.00;96.10;;;;;;5037824;28;19929;-77
2023/08/11 10:27:27;;;;;;;;;;;29.90;95.80;;;;;;5036659;28;19925;-77
2023/08/11 10:29:54;;;;;;;;;;;29.70;96.90;;;;;;5071020;28;19925;-77
2023/08/11 10:32:21;;;;;;;;;;;29.80;97.30;;;;;;5037081;28;19929;-77
2023/08/11 10:34:49;;;;;;;;;;;29.70;95.20;;;;;;5040102;28;19925;-78
2023/08/11 10:37:14;;;;;;;;;;;29.70;96.10;;;;;;5025284;28;19929;-78
2023/08/11 10:39:55;;;;;;;;;;;29.60;95.00;;;;;;5041468;28;19932;-78
2023/08/11 10:42:21;;;;;;;;;;;29.60;97.00;;;;;;5041986;28;20071;-77
2023/08/11 10:44:46;;;;;;;;;;;29.50;96.80;;;;;;5040816;28;19933;-77
2023/08/11 10:47:12;;;;;;;;;;;29.40;95.90;;;;;;5041647;28;19925;-77
2023/08/11 10:49:41;;;;;;;;;;;29.50;96.60;;;;;;5041434;28;19955;-77
2023/08/11 10:52:07;;;;;;;;;;;29.50;95.90;;;;;;5040759;28;19925;-77
2023/08/11 10:54:33;;;;;;;;;;;29.50;97.70;;;;;;5024414;28;19932;-77
2023/08/11 10:56:59;;;;;;;;;;;29.60;97.70;;;;;;5040622;28;19985;-77
2023/08/11 10:59:26;;;;;;;;;;;29.70;99.20;;;;;;5041817;28;19929;-77
2023/08/11 11:01:53;;;;;;;;;;;29.70;94.10;;;;;;5040893;28;19929;-77
2023/08/11 11:04:20;;;;;;;;;;;29.70;95.90;;;;;;5024479;28;19929;-77
2023/08/11 11:06:47;;;;;;;;;;;29.80;95.70;;;;;;5041020;28;19936;-77
2023/08/11 11:09:13;;;;;;;;;;;29.90;97.40;;;;;;5040523;28;19936;-77
2023/08/11 11:11:39;;;;;;;;;;;30.00;95.30;;;;;;5041444;28;19932;-77
2023/08/11 11:14:05;;;;;;;;;;;30.00;96.30;;;;;;5040303;28;19929;-77
2023/08/11 11:16:32;;;;;;;;;;;29.80;94.60;;;;;;5041266;28;19925;-77
2023/08/11 11:19:05;;;;;;;;;;;29.70;95.60;;;;;;5040234;28;19992;-77
2023/08/11 11:21:32;;;;;;;;;;;29.50;94.50;;;;;;5041040;28;20312;-77
2023/08/11 11:23:57;;;;;;;;;;;29.50;94.90;;;;;;5040337;28;19925;-77
2023/08/11 11:26:27;;;;;;;;;;;29.40;93.50;;;;;;5040230;28;20366;-77
2023/08/11 11:28:54;;;;;;;;;;;29.30;92.60;;;;;;5041293;28;20380;-78
2023/08/11 11:31:21;;;;;;;;;;;29.30;94.00;;;;;;5039868;28;20131;-78
2023/08/11 11:33:47;;;;;;;;;;;29.40;95.30;;;;;;5040860;28;19932;-77
2023/08/11 11:36:13;;;;;;;;;;;29.40;94.10;;;;;;5039701;28;19925;-77
2023/08/11 11:38:39;;;;;;;;;;;29.50;96.80;;;;;;5040471;28;19983;-78
2023/08/11 11:41:09;;;;;;;;;;;29.70;93.10;;;;;;5049203;28;19932;-78
2023/08/11 11:43:35;;;;;;;;;;;29.80;92.30;;;;;;5039825;28;19929;-78
2023/08/11 11:46:01;;;;;;;;;;;29.80;93.10;;;;;;5024020;28;19929;-77
2023/08/11 11:48:26;;;;;;;;;;;29.80;95.20;;;;;;5039583;28;19925;-78
2023/08/11 11:50:52;;;;;;;;;;;29.90;92.70;;;;;;5040397;28;19925;-78
2023/08/11 11:53:20;;;;;;;;;;;29.80;96.10;;;;;;5039276;28;20011;-77
2023/08/11 11:55:46;;;;;;;;;;;29.80;93.60;;;;;;5040242;28;19925;-77
2023/08/11 11:58:15;;;;;;;;;;;29.70;94.50;;;;;;5040348;28;19925;-77
2023/08/11 12:00:41;;;;;;;;;;;29.60;93.60;;;;;;5025768;28;19932;-78
2023/08/11 12:03:07;;;;;;;;;;;29.70;95.30;;;;;;5056910;28;19971;-77
2023/08/11 12:05:33;;;;;;;;;;;29.70;93.80;;;;;;5072188;28;19925;-77
2023/08/11 12:08:00;;;;;;;;;;;29.80;94.00;;;;;;5056824;28;19935;-78
2023/08/11 12:10:32;;;;;;;;;;;29.80;94.00;;;;;;5039289;28;19976;-77
2023/08/11 12:12:58;;;;;;;;;;;29.90;94.70;;;;;;5040091;28;19926;-78
2023/08/11 12:15:24;;;;;;;;;;;29.90;94.80;;;;;;5039796;28;19932;-77
2023/08/11 12:17:50;;;;;;;;;;;30.00;94.70;;;;;;5039306;28;19958;-77
2023/08/11 12:20:15;;;;;;;;;;;30.10;93.60;;;;;;5039797;28;19929;-77
2023/08/11 12:22:42;;;;;;;;;;;30.10;95.00;;;;;;5034953;28;19925;-77
2023/08/11 12:25:08;;;;;;;;;;;30.30;95.10;;;;;;5043263;28;19929;-77
2023/08/11 12:27:35;;;;;;;;;;;30.30;95.50;;;;;;5034951;28;19925;-78
2023/08/11 12:30:01;;;;;;;;;;;30.10;91.90;;;;;;5039525;28;19964;-77
2023/08/11 12:32:26;;;;;;;;;;;29.70;94.60;;;;;;5039580;28;19925;-78
2023/08/11 12:34:52;;;;;;;;;;;29.60;94.70;;;;;;5039132;28;19971;-77
2023/08/11 12:37:18;;;;;;;;;;;29.60;95.40;;;;;;5056552;28;19929;-77
2023/08/11 12:39:43;;;;;;;;;;;29.70;95.50;;;;;;5038747;28;19929;-77
2023/08/11 12:42:09;;;;;;;;;;;29.90;94.90;;;;;;5039905;28;19931;-77
2023/08/11 12:44:34;;;;;;;;;;;30.00;95.00;;;;;;5030262;28;20699;-77
2023/08/11 12:47:00;;;;;;;;;;;30.00;93.90;;;;;;5024856;28;20371;-78
2023/08/11 12:49:26;;;;;;;;;;;30.00;94.80;;;;;;5039066;28;19941;-77
2023/08/11 12:51:52;;;;;;;;;;;30.00;96.00;;;;;;5055149;28;19960;-77
2023/08/11 12:54:18;;;;;;;;;;;30.00;95.40;;;;;;5039187;28;19989;-77
2023/08/11 12:56:44;;;;;;;;;;;30.10;97.10;;;;;;5021294;28;19963;-78
2023/08/11 12:59:10;;;;;;;;;;;30.30;96.20;;;;;;5055757;28;19925;-78
2023/08/11 13:01:36;;;;;;;;;;;30.40;94.00;;;;;;5021391;28;20011;-78
2023/08/11 13:04:03;;;;;;;;;;;30.30;93.90;;;;;;5055559;28;19932;-78
2023/08/11 13:06:29;;;;;;;;;;;30.20;94.90;;;;;;5038388;28;20042;-78
2023/08/11 13:08:55;;;;;;;;;;;30.30;95.50;;;;;;5038414;28;19929;-78
2023/08/11 13:11:20;;;;;;;;;;;30.30;92.60;;;;;;5055527;28;19971;-78
2023/08/11 13:13:47;;;;;;;;;;;30.10;94.30;;;;;;5038243;28;20376;-78
2023/08/11 13:16:13;;;;;;;;;;;29.90;93.70;;;;;;5038885;28;19925;-77
2023/08/11 13:18:38;;;;;;;;;;;29.80;95.30;;;;;;5054453;28;20019;-78
2023/08/11 13:21:04;;;;;;;;;;;29.70;95.50;;;;;;5038644;28;19981;-78
2023/08/11 13:23:31;;;;;;;;;;;29.60;95.10;;;;;;5037335;28;19932;-77
2023/08/11 13:25:57;;;;;;;;;;;29.50;96.10;;;;;;5038123;28;19952;-78
2023/08/11 13:28:23;;;;;;;;;;;29.50;94.30;;;;;;5055052;28;20351;-78
2023/08/11 13:30:49;;;;;;;;;;;29.40;96.20;;;;;;5037893;28;19943;-78
2023/08/11 13:33:14;;;;;;;;;;;29.30;96.00;;;;;;5038507;28;20319;-78
2023/08/11 13:35:40;;;;;;;;;;;29.20;95.50;;;;;;5037735;28;19925;-78
2023/08/11 13:38:06;;;;;;;;;;;29.30;98.20;;;;;;5038133;28;19925;-78
2023/08/11 13:40:31;;;;;;;;;;;29.40;97.60;;;;;;5037324;28;20009;-78
2023/08/11 13:42:57;;;;;;;;;;;29.60;97.00;;;;;;5021786;28;19932;-78
2023/08/11 13:45:22;;;;;;;;;;;29.80;95.90;;;;;;5021208;28;20059;-78
2023/08/11 13:47:48;;;;;;;;;;;30.00;96.20;;;;;;5037770;28;19925;-78
2023/08/11 13:50:14;;;;;;;;;;;30.10;94.90;;;;;;5054876;28;20802;-78
2023/08/11 13:52:40;;;;;;;;;;;30.10;96.50;;;;;;5037172;28;19925;-78
2023/08/11 13:55:06;;;;;;;;;;;30.10;95.40;;;;;;5038021;28;19929;-78
2023/08/11 13:57:32;;;;;;;;;;;30.10;95.60;;;;;;5053452;28;19925;-79
2023/08/11 13:59:58;;;;;;;;;;;30.00;95.70;;;;;;5054529;28;19932;-79
2023/08/11 14:02:30;;;;;;;;;;;30.00;95.90;;;;;;5037405;28;19925;-78
2023/08/11 14:04:55;;;;;;;;;;;30.00;96.00;;;;;;5037195;28;20409;-78
2023/08/11 14:07:21;;;;;;;;;;;30.00;96.30;;;;;;5037880;28;19941;-77
2023/08/11 14:09:47;;;;;;;;;;;29.90;95.50;;;;;;5036961;28;19925;-78